GTI576 EIDW-EGUN
Flight info
| Callsign | GTI576 |
|---|---|
| Flight time | 0h 59m |
| Altitude | 35000 |
| Route | LIFFY3J LIFFY DCT ALAVA DCT BERUL DCT HON DCT WIT DCT GUNGU |
| Aircraft | B744/H-SDE3FGHIM1M2RWXY/LB1 |
Departure
| Time | 2026-05-03 20:23 |
|---|---|
| Airport | Dublin Airport (EIDW) |
Arrival
| Time | 2026-05-03 21:23 |
|---|---|
| Airport | RAF Mildenhall (EGUN) |
| Time | Latitude | Longitude | Altitude | Speed | Heading |
|---|---|---|---|---|---|
| 2026-05-03 20:15 | 53.42502 | -6.25967 | 229 ft | 7 kts | 101° |
| 2026-05-03 20:15 | 53.42479 | -6.25879 | 230 ft | 10 kts | 155° |
| 2026-05-03 20:15 | 53.42411 | -6.25912 | 232 ft | 10 kts | 223° |
| 2026-05-03 20:15 | 53.42352 | -6.26009 | 230 ft | 13 kts | 225° |
| 2026-05-03 20:16 | 53.42289 | -6.26117 | 229 ft | 13 kts | 235° |
| 2026-05-03 20:16 | 53.42269 | -6.26262 | 232 ft | 14 kts | 272° |
| 2026-05-03 20:16 | 53.42274 | -6.26429 | 226 ft | 15 kts | 276° |
| 2026-05-03 20:16 | 53.42285 | -6.26613 | 225 ft | 16 kts | 275° |
| 2026-05-03 20:17 | 53.42296 | -6.26806 | 221 ft | 17 kts | 275° |
| 2026-05-03 20:17 | 53.42307 | -6.27011 | 228 ft | 18 kts | 275° |
| 2026-05-03 20:17 | 53.42318 | -6.27208 | 232 ft | 17 kts | 275° |
| 2026-05-03 20:17 | 53.42329 | -6.27413 | 220 ft | 18 kts | 275° |
| 2026-05-03 20:18 | 53.42341 | -6.27619 | 232 ft | 17 kts | 275° |
| 2026-05-03 20:18 | 53.42351 | -6.27810 | 228 ft | 16 kts | 275° |
| 2026-05-03 20:18 | 53.42362 | -6.27995 | 229 ft | 16 kts | 275° |
| 2026-05-03 20:18 | 53.42372 | -6.28179 | 225 ft | 16 kts | 275° |
| 2026-05-03 20:19 | 53.42382 | -6.28363 | 227 ft | 16 kts | 275° |
| 2026-05-03 20:19 | 53.42391 | -6.28541 | 227 ft | 15 kts | 275° |
| 2026-05-03 20:19 | 53.42399 | -6.28706 | 218 ft | 12 kts | 275° |
| 2026-05-03 20:19 | 53.42405 | -6.28834 | 221 ft | 11 kts | 275° |
| 2026-05-03 20:20 | 53.42410 | -6.28933 | 227 ft | 9 kts | 275° |
| 2026-05-03 20:20 | 53.42392 | -6.29039 | 230 ft | 11 kts | 222° |
| 2026-05-03 20:20 | 53.42320 | -6.29073 | 231 ft | 9 kts | 177° |
| 2026-05-03 20:20 | 53.42275 | -6.29069 | 230 ft | 5 kts | 176° |
| 2026-05-03 20:21 | 53.42241 | -6.29032 | 227 ft | 6 kts | 100° |
| 2026-05-03 20:21 | 53.42240 | -6.29016 | 227 ft | 0 kts | 90° |
| 2026-05-03 20:22 | 53.42240 | -6.28995 | 222 ft | 12 kts | 90° |
| 2026-05-03 20:22 | 53.42214 | -6.28413 | 225 ft | 87 kts | 96° |
| 2026-05-03 20:23 | 53.42135 | -6.27064 | 227 ft | 138 kts | 95° |
| 2026-05-03 20:23 | 53.42016 | -6.25313 | 578 ft | 146 kts | 95° |
| 2026-05-03 20:23 | 53.41880 | -6.23453 | 1344 ft | 158 kts | 95° |
| 2026-05-03 20:23 | 53.41766 | -6.21598 | 1805 ft | 154 kts | 92° |
| 2026-05-03 20:24 | 53.41705 | -6.19664 | 2122 ft | 173 kts | 91° |
| 2026-05-03 20:24 | 53.41630 | -6.17681 | 2808 ft | 168 kts | 93° |
| 2026-05-03 20:24 | 53.41519 | -6.15747 | 3468 ft | 156 kts | 94° |
| 2026-05-03 20:24 | 53.41401 | -6.13696 | 4041 ft | 172 kts | 94° |
| 2026-05-03 20:25 | 53.41277 | -6.11444 | 4702 ft | 202 kts | 94° |
| 2026-05-03 20:25 | 53.41141 | -6.09007 | 5319 ft | 207 kts | 94° |
| 2026-05-03 20:25 | 53.40994 | -6.06365 | 5907 ft | 235 kts | 95° |
| 2026-05-03 20:25 | 53.40961 | -6.03522 | 6456 ft | 253 kts | 86° |
| 2026-05-03 20:26 | 53.41120 | -6.00516 | 7120 ft | 264 kts | 83° |
| 2026-05-03 20:26 | 53.41334 | -5.97477 | 7922 ft | 268 kts | 83° |
| 2026-05-03 20:26 | 53.41570 | -5.94331 | 8736 ft | 271 kts | 83° |
| 2026-05-03 20:26 | 53.41807 | -5.91130 | 8990 ft | 275 kts | 83° |
| 2026-05-03 20:27 | 53.42038 | -5.87894 | 8998 ft | 275 kts | 83° |
| 2026-05-03 20:27 | 53.42258 | -5.84709 | 8972 ft | 275 kts | 84° |
| 2026-05-03 20:27 | 53.42471 | -5.81576 | 8971 ft | 274 kts | 83° |
| 2026-05-03 20:27 | 53.42922 | -5.78432 | 9063 ft | 274 kts | 73° |
| 2026-05-03 20:28 | 53.43492 | -5.75329 | 9674 ft | 280 kts | 73° |
| 2026-05-03 20:28 | 53.44058 | -5.72218 | 10533 ft | 290 kts | 73° |
| 2026-05-03 20:28 | 53.44660 | -5.68877 | 11155 ft | 302 kts | 74° |
| 2026-05-03 20:28 | 53.45294 | -5.65328 | 11729 ft | 322 kts | 74° |
| 2026-05-03 20:29 | 53.45964 | -5.61566 | 12204 ft | 345 kts | 74° |
| 2026-05-03 20:29 | 53.46668 | -5.57597 | 12656 ft | 363 kts | 74° |
| 2026-05-03 20:29 | 53.47394 | -5.53493 | 13287 ft | 364 kts | 74° |
| 2026-05-03 20:29 | 53.47939 | -5.49244 | 13934 ft | 374 kts | 85° |
| 2026-05-03 20:30 | 53.47969 | -5.44856 | 14596 ft | 377 kts | 93° |
| 2026-05-03 20:30 | 53.47785 | -5.40436 | 15248 ft | 383 kts | 96° |
| 2026-05-03 20:30 | 53.47513 | -5.35968 | 15914 ft | 387 kts | 97° |
| 2026-05-03 20:30 | 53.47212 | -5.31472 | 16540 ft | 385 kts | 97° |
| 2026-05-03 20:31 | 53.46914 | -5.26922 | 17171 ft | 393 kts | 96° |
| 2026-05-03 20:31 | 53.46634 | -5.22320 | 17808 ft | 398 kts | 96° |
| 2026-05-03 20:31 | 53.46371 | -5.17673 | 18379 ft | 398 kts | 96° |
| 2026-05-03 20:31 | 53.46118 | -5.12974 | 18958 ft | 407 kts | 96° |
| 2026-05-03 20:32 | 53.45869 | -5.08228 | 19536 ft | 410 kts | 96° |
| 2026-05-03 20:32 | 53.45620 | -5.03440 | 20094 ft | 410 kts | 96° |
| 2026-05-03 20:32 | 53.45367 | -4.98604 | 20682 ft | 419 kts | 96° |
| 2026-05-03 20:32 | 53.45110 | -4.93722 | 21222 ft | 422 kts | 96° |
| 2026-05-03 20:33 | 53.44848 | -4.88803 | 21753 ft | 421 kts | 96° |
| 2026-05-03 20:33 | 53.44580 | -4.83834 | 22279 ft | 429 kts | 96° |
| 2026-05-03 20:33 | 53.44306 | -4.78828 | 22748 ft | 431 kts | 96° |
| 2026-05-03 20:33 | 53.44026 | -4.73764 | 22865 ft | 438 kts | 96° |
| 2026-05-03 20:34 | 53.43744 | -4.68705 | 22802 ft | 434 kts | 96° |
| 2026-05-03 20:34 | 53.43458 | -4.63635 | 23023 ft | 438 kts | 96° |
| 2026-05-03 20:34 | 53.43168 | -4.58547 | 23629 ft | 439 kts | 96° |
| 2026-05-03 20:34 | 53.42874 | -4.53445 | 24170 ft | 441 kts | 96° |
| 2026-05-03 20:35 | 53.42576 | -4.48294 | 24617 ft | 443 kts | 96° |
| 2026-05-03 20:35 | 53.42273 | -4.43086 | 25102 ft | 448 kts | 96° |
| 2026-05-03 20:35 | 53.41970 | -4.37907 | 25600 ft | 453 kts | 96° |
| 2026-05-03 20:35 | 53.41658 | -4.32617 | 26087 ft | 454 kts | 96° |
| 2026-05-03 20:36 | 53.41342 | -4.27285 | 26595 ft | 462 kts | 96° |
| 2026-05-03 20:36 | 53.41021 | -4.21908 | 27096 ft | 466 kts | 96° |
| 2026-05-03 20:36 | 53.40695 | -4.16495 | 27579 ft | 468 kts | 96° |
| 2026-05-03 20:36 | 53.40363 | -4.11032 | 28068 ft | 472 kts | 96° |
| 2026-05-03 20:37 | 53.39748 | -4.05607 | 28562 ft | 473 kts | 108° |
| 2026-05-03 20:37 | 53.38321 | -4.00591 | 29039 ft | 479 kts | 123° |
| 2026-05-03 20:37 | 53.36150 | -3.96365 | 29509 ft | 479 kts | 139° |
| 2026-05-03 20:37 | 53.33391 | -3.93194 | 30078 ft | 482 kts | 153° |
| 2026-05-03 20:38 | 53.30332 | -3.90918 | 30682 ft | 481 kts | 159° |
| 2026-05-03 20:38 | 53.27207 | -3.88949 | 31312 ft | 474 kts | 160° |
| 2026-05-03 20:38 | 53.24058 | -3.87082 | 31939 ft | 478 kts | 161° |
| 2026-05-03 20:38 | 53.20925 | -3.85240 | 32569 ft | 477 kts | 161° |
| 2026-05-03 20:39 | 53.17809 | -3.83377 | 33185 ft | 469 kts | 160° |
| 2026-05-03 20:39 | 53.14707 | -3.81484 | 33833 ft | 473 kts | 160° |
| 2026-05-03 20:39 | 53.11623 | -3.79574 | 34375 ft | 473 kts | 160° |
| 2026-05-03 20:39 | 53.08547 | -3.77656 | 34787 ft | 470 kts | 160° |
| 2026-05-03 20:40 | 53.05467 | -3.75731 | 34929 ft | 472 kts | 160° |
| 2026-05-03 20:40 | 52.99360 | -3.71917 | 34948 ft | 466 kts | 160° |
| 2026-05-03 20:41 | 52.93300 | -3.68146 | 34951 ft | 464 kts | 160° |
| 2026-05-03 20:41 | 52.87290 | -3.64422 | 34948 ft | 463 kts | 160° |
| 2026-05-03 20:42 | 52.81241 | -3.60688 | 34946 ft | 463 kts | 160° |
| 2026-05-03 20:42 | 52.75192 | -3.56968 | 34945 ft | 463 kts | 160° |
| 2026-05-03 20:43 | 52.70336 | -3.53260 | 34944 ft | 466 kts | 145° |
| 2026-05-03 20:43 | 52.67981 | -3.49607 | 34951 ft | 467 kts | 130° |
| 2026-05-03 20:43 | 52.66253 | -3.45061 | 34939 ft | 469 kts | 116° |
| 2026-05-03 20:44 | 52.64196 | -3.34843 | 34947 ft | 472 kts | 106° |
| 2026-05-03 20:44 | 52.62558 | -3.24412 | 34930 ft | 470 kts | 105° |
| 2026-05-03 20:45 | 52.60935 | -3.13982 | 34948 ft | 472 kts | 106° |
| 2026-05-03 20:45 | 52.59250 | -3.03582 | 34941 ft | 470 kts | 106° |
| 2026-05-03 20:46 | 52.57531 | -2.93203 | 34934 ft | 470 kts | 107° |
| 2026-05-03 20:46 | 52.55798 | -2.82821 | 34934 ft | 471 kts | 107° |
| 2026-05-03 20:47 | 52.54058 | -2.72443 | 34933 ft | 472 kts | 107° |
| 2026-05-03 20:47 | 52.52307 | -2.62062 | 34933 ft | 471 kts | 107° |
| 2026-05-03 20:48 | 52.50546 | -2.51676 | 34929 ft | 471 kts | 107° |
| 2026-05-03 20:48 | 52.48774 | -2.41292 | 34927 ft | 472 kts | 107° |
| 2026-05-03 20:49 | 52.47004 | -2.30977 | 34926 ft | 473 kts | 108° |
| 2026-05-03 20:49 | 52.45209 | -2.20582 | 34924 ft | 475 kts | 108° |
| 2026-05-03 20:50 | 52.43404 | -2.10189 | 34924 ft | 474 kts | 108° |
| 2026-05-03 20:50 | 52.41588 | -1.99793 | 34923 ft | 474 kts | 108° |
| 2026-05-03 20:51 | 52.39764 | -1.89408 | 34919 ft | 474 kts | 108° |
| 2026-05-03 20:51 | 52.37931 | -1.79039 | 34934 ft | 473 kts | 108° |
| 2026-05-03 20:52 | 52.36376 | -1.68546 | 34936 ft | 479 kts | 96° |
| 2026-05-03 20:52 | 52.36591 | -1.63089 | 34932 ft | 484 kts | 81° |
| 2026-05-03 20:52 | 52.37475 | -1.57758 | 34932 ft | 485 kts | 74° |
| 2026-05-03 20:52 | 52.38554 | -1.52529 | 34709 ft | 483 kts | 72° |
| 2026-05-03 20:53 | 52.39699 | -1.47386 | 34138 ft | 480 kts | 71° |
| 2026-05-03 20:53 | 52.40863 | -1.42279 | 33559 ft | 478 kts | 71° |
| 2026-05-03 20:53 | 52.42013 | -1.37212 | 33025 ft | 473 kts | 71° |
| 2026-05-03 20:53 | 52.43138 | -1.32169 | 31513 ft | 471 kts | 72° |
| 2026-05-03 20:54 | 52.44241 | -1.27152 | 32041 ft | 466 kts | 72° |
| 2026-05-03 20:54 | 52.46395 | -1.17204 | 30961 ft | 460 kts | 72° |
| 2026-05-03 20:54 | 52.47453 | -1.12276 | 30491 ft | 457 kts | 72° |
| 2026-05-03 20:55 | 52.48501 | -1.07380 | 30006 ft | 452 kts | 72° |
| 2026-05-03 20:55 | 52.49537 | -1.02541 | 29484 ft | 448 kts | 72° |
| 2026-05-03 20:55 | 52.50563 | -0.97749 | 28994 ft | 443 kts | 73° |
| 2026-05-03 20:55 | 52.51577 | -0.92998 | 28511 ft | 439 kts | 73° |
| 2026-05-03 20:56 | 52.52577 | -0.88294 | 28028 ft | 434 kts | 73° |
| 2026-05-03 20:56 | 52.53565 | -0.83637 | 27532 ft | 430 kts | 73° |
| 2026-05-03 20:56 | 52.54525 | -0.79092 | 27061 ft | 425 kts | 73° |
| 2026-05-03 20:56 | 52.55487 | -0.74527 | 26571 ft | 421 kts | 73° |
| 2026-05-03 20:57 | 52.56437 | -0.70007 | 26084 ft | 416 kts | 73° |
| 2026-05-03 20:57 | 52.57375 | -0.65538 | 25622 ft | 413 kts | 74° |
| 2026-05-03 20:57 | 52.58301 | -0.61109 | 25137 ft | 408 kts | 74° |
| 2026-05-03 20:57 | 52.59216 | -0.56730 | 24663 ft | 403 kts | 74° |
| 2026-05-03 20:58 | 52.60113 | -0.52380 | 24184 ft | 398 kts | 76° |
| 2026-05-03 20:58 | 52.60584 | -0.47953 | 23692 ft | 389 kts | 91° |
| 2026-05-03 20:58 | 52.60503 | -0.43554 | 23183 ft | 383 kts | 97° |
| 2026-05-03 20:58 | 52.60254 | -0.39227 | 22701 ft | 378 kts | 99° |
| 2026-05-03 20:59 | 52.59934 | -0.34960 | 22211 ft | 373 kts | 100° |
| 2026-05-03 20:59 | 52.59597 | -0.30748 | 21737 ft | 369 kts | 100° |
| 2026-05-03 20:59 | 52.59269 | -0.26570 | 21270 ft | 368 kts | 100° |
| 2026-05-03 20:59 | 52.58964 | -0.22431 | 20784 ft | 362 kts | 99° |
| 2026-05-03 21:00 | 52.58677 | -0.18323 | 20317 ft | 359 kts | 99° |
| 2026-05-03 21:00 | 52.58495 | -0.15627 | 19993 ft | 357 kts | 98° |
| 2026-05-03 21:00 | 52.58136 | -0.10232 | 19363 ft | 352 kts | 98° |
| 2026-05-03 21:00 | 52.57874 | -0.06248 | 18890 ft | 349 kts | 98° |
| 2026-05-03 21:01 | 52.57613 | -0.02300 | 18435 ft | 347 kts | 98° |
| 2026-05-03 21:01 | 52.57352 | 0.01624 | 17923 ft | 344 kts | 98° |
| 2026-05-03 21:01 | 52.57092 | 0.05505 | 17469 ft | 341 kts | 98° |
| 2026-05-03 21:01 | 52.56833 | 0.09356 | 17022 ft | 337 kts | 98° |
| 2026-05-03 21:02 | 52.56571 | 0.13166 | 16581 ft | 333 kts | 98° |
| 2026-05-03 21:02 | 52.56276 | 0.16914 | 16106 ft | 329 kts | 97° |
| 2026-05-03 21:02 | 52.55999 | 0.20643 | 15681 ft | 328 kts | 96° |
| 2026-05-03 21:02 | 52.55749 | 0.24359 | 15249 ft | 326 kts | 95° |
| 2026-05-03 21:03 | 52.55509 | 0.28053 | 14802 ft | 325 kts | 95° |
| 2026-05-03 21:03 | 52.55269 | 0.31729 | 14370 ft | 324 kts | 95° |
| 2026-05-03 21:03 | 52.55024 | 0.35388 | 13937 ft | 322 kts | 95° |
| 2026-05-03 21:03 | 52.54774 | 0.39030 | 13491 ft | 321 kts | 95° |
| 2026-05-03 21:04 | 52.54522 | 0.42654 | 13066 ft | 319 kts | 95° |
| 2026-05-03 21:04 | 52.54267 | 0.46258 | 12649 ft | 316 kts | 95° |
| 2026-05-03 21:04 | 52.54012 | 0.49848 | 12213 ft | 316 kts | 95° |
| 2026-05-03 21:04 | 52.53757 | 0.53419 | 11801 ft | 315 kts | 95° |
| 2026-05-03 21:05 | 52.53501 | 0.56982 | 11387 ft | 313 kts | 95° |
| 2026-05-03 21:05 | 52.53249 | 0.60472 | 10992 ft | 312 kts | 95° |
| 2026-05-03 21:05 | 52.52993 | 0.64005 | 10597 ft | 310 kts | 95° |
| 2026-05-03 21:05 | 52.52737 | 0.67462 | 10421 ft | 300 kts | 94° |
| 2026-05-03 21:06 | 52.52490 | 0.70831 | 10214 ft | 296 kts | 94° |
| 2026-05-03 21:06 | 52.52263 | 0.74209 | 9937 ft | 299 kts | 95° |
| 2026-05-03 21:06 | 52.52024 | 0.77597 | 9892 ft | 299 kts | 99° |
| 2026-05-03 21:06 | 52.51339 | 0.80793 | 9889 ft | 297 kts | 122° |
| 2026-05-03 21:07 | 52.49921 | 0.83217 | 9898 ft | 295 kts | 148° |
| 2026-05-03 21:07 | 52.48032 | 0.84407 | 9806 ft | 292 kts | 174° |
| 2026-05-03 21:07 | 52.46049 | 0.84169 | 9444 ft | 285 kts | 199° |
| 2026-05-03 21:07 | 52.44374 | 0.82561 | 9091 ft | 278 kts | 225° |
| 2026-05-03 21:08 | 52.43339 | 0.79944 | 8737 ft | 275 kts | 251° |
| 2026-05-03 21:08 | 52.43147 | 0.76875 | 8382 ft | 272 kts | 278° |
| 2026-05-03 21:08 | 52.43769 | 0.73967 | 8037 ft | 271 kts | 296° |
| 2026-05-03 21:08 | 52.44639 | 0.71233 | 7680 ft | 270 kts | 295° |
| 2026-05-03 21:09 | 52.45331 | 0.68381 | 7332 ft | 269 kts | 287° |
| 2026-05-03 21:09 | 52.45768 | 0.65410 | 6988 ft | 267 kts | 280° |
| 2026-05-03 21:09 | 52.46024 | 0.62399 | 6643 ft | 266 kts | 275° |
| 2026-05-03 21:09 | 52.46133 | 0.59371 | 6299 ft | 265 kts | 271° |
| 2026-05-03 21:10 | 52.46119 | 0.56349 | 5964 ft | 264 kts | 268° |
| 2026-05-03 21:10 | 52.45995 | 0.53350 | 5691 ft | 263 kts | 264° |
| 2026-05-03 21:10 | 52.45752 | 0.50380 | 5466 ft | 263 kts | 261° |
| 2026-05-03 21:10 | 52.45416 | 0.47440 | 5279 ft | 264 kts | 259° |
| 2026-05-03 21:11 | 52.45021 | 0.44516 | 5077 ft | 263 kts | 257° |
| 2026-05-03 21:11 | 52.44595 | 0.41614 | 4865 ft | 263 kts | 257° |
| 2026-05-03 21:11 | 52.44146 | 0.38713 | 4667 ft | 264 kts | 256° |
| 2026-05-03 21:11 | 52.43681 | 0.35786 | 4464 ft | 267 kts | 257° |
| 2026-05-03 21:12 | 52.43217 | 0.32831 | 4273 ft | 268 kts | 257° |
| 2026-05-03 21:12 | 52.42763 | 0.29917 | 4051 ft | 268 kts | 256° |
| 2026-05-03 21:12 | 52.42300 | 0.26965 | 3861 ft | 266 kts | 256° |
| 2026-05-03 21:12 | 52.41835 | 0.24023 | 3658 ft | 267 kts | 256° |
| 2026-05-03 21:13 | 52.41374 | 0.21130 | 3446 ft | 260 kts | 256° |
| 2026-05-03 21:13 | 52.40795 | 0.18386 | 3237 ft | 250 kts | 248° |
| 2026-05-03 21:13 | 52.40108 | 0.15831 | 3022 ft | 241 kts | 245° |
| 2026-05-03 21:13 | 52.39399 | 0.13396 | 2851 ft | 235 kts | 244° |
| 2026-05-03 21:14 | 52.38678 | 0.11028 | 2689 ft | 229 kts | 244° |
| 2026-05-03 21:14 | 52.37955 | 0.08714 | 2613 ft | 226 kts | 244° |
| 2026-05-03 21:14 | 52.37243 | 0.06440 | 2616 ft | 224 kts | 244° |
| 2026-05-03 21:14 | 52.36613 | 0.04122 | 2623 ft | 223 kts | 252° |
| 2026-05-03 21:15 | 52.36372 | 0.01645 | 2630 ft | 220 kts | 272° |
| 2026-05-03 21:15 | 52.36770 | -0.00769 | 2631 ft | 222 kts | 298° |
| 2026-05-03 21:15 | 52.37799 | -0.02570 | 2627 ft | 216 kts | 327° |
| 2026-05-03 21:15 | 52.39157 | -0.03274 | 2626 ft | 199 kts | 356° |
| 2026-05-03 21:16 | 52.40481 | -0.02860 | 2636 ft | 192 kts | 23° |
| 2026-05-03 21:16 | 52.41523 | -0.01532 | 2647 ft | 188 kts | 50° |
| 2026-05-03 21:16 | 52.42078 | 0.00408 | 2643 ft | 191 kts | 76° |
| 2026-05-03 21:16 | 52.42068 | 0.02602 | 2643 ft | 194 kts | 94° |
| 2026-05-03 21:17 | 52.41946 | 0.04825 | 2636 ft | 195 kts | 95° |
| 2026-05-03 21:17 | 52.41870 | 0.06286 | 2636 ft | 193 kts | 95° |
| 2026-05-03 21:17 | 52.41719 | 0.09234 | 2635 ft | 194 kts | 95° |
| 2026-05-03 21:17 | 52.41562 | 0.11421 | 2635 ft | 192 kts | 99° |
| 2026-05-03 21:18 | 52.41311 | 0.13590 | 2636 ft | 194 kts | 103° |
| 2026-05-03 21:18 | 52.41013 | 0.15715 | 2636 ft | 194 kts | 104° |
| 2026-05-03 21:18 | 52.40690 | 0.17889 | 2640 ft | 194 kts | 104° |
| 2026-05-03 21:18 | 52.40375 | 0.19995 | 2643 ft | 189 kts | 104° |
| 2026-05-03 21:19 | 52.40066 | 0.22083 | 2645 ft | 182 kts | 104° |
| 2026-05-03 21:19 | 52.39775 | 0.24065 | 2636 ft | 181 kts | 104° |
| 2026-05-03 21:19 | 52.39485 | 0.26039 | 2483 ft | 176 kts | 104° |
| 2026-05-03 21:19 | 52.39203 | 0.27963 | 2256 ft | 173 kts | 104° |
| 2026-05-03 21:20 | 52.38923 | 0.29869 | 2032 ft | 171 kts | 104° |
| 2026-05-03 21:20 | 52.38647 | 0.31757 | 1807 ft | 170 kts | 104° |
| 2026-05-03 21:20 | 52.38374 | 0.33625 | 1587 ft | 167 kts | 104° |
| 2026-05-03 21:20 | 52.38107 | 0.35456 | 1368 ft | 165 kts | 104° |
| 2026-05-03 21:21 | 52.37842 | 0.37277 | 1156 ft | 165 kts | 103° |
| 2026-05-03 21:21 | 52.37576 | 0.39101 | 940 ft | 164 kts | 103° |
| 2026-05-03 21:21 | 52.37312 | 0.40915 | 722 ft | 163 kts | 103° |
| 2026-05-03 21:21 | 52.37047 | 0.42722 | 491 ft | 163 kts | 103° |
| 2026-05-03 21:22 | 52.36785 | 0.44519 | 300 ft | 162 kts | 103° |
| 2026-05-03 21:22 | 52.36532 | 0.46308 | 106 ft | 161 kts | 103° |
| 2026-05-03 21:22 | 52.36283 | 0.48051 | 31 ft | 147 kts | 103° |
| 2026-05-03 21:22 | 52.36072 | 0.49458 | 39 ft | 105 kts | 103° |
| 2026-05-03 21:23 | 52.35953 | 0.50273 | 37 ft | 42 kts | 103° |
| 2026-05-03 21:23 | 52.35923 | 0.50478 | 37 ft | 13 kts | 103° |
| 2026-05-03 21:23 | 52.35908 | 0.50573 | 38 ft | 8 kts | 120° |
| 2026-05-03 21:23 | 52.35862 | 0.50607 | 40 ft | 8 kts | 202° |
| 2026-05-03 21:24 | 52.35834 | 0.50555 | 40 ft | 0 kts | 256° |
| 2026-05-03 21:24 | 52.35835 | 0.50555 | 40 ft | 0 kts | 256° |
| 2026-05-03 21:26 | 52.35832 | 0.50543 | 39 ft | 4 kts | 241° |
| 2026-05-03 21:26 | 52.35804 | 0.50511 | 38 ft | 6 kts | 188° |
| 2026-05-03 21:26 | 52.35757 | 0.50518 | 39 ft | 7 kts | 159° |
| 2026-05-03 21:26 | 52.35742 | 0.50530 | 40 ft | 0 kts | 148° |
| 2026-05-03 21:27 | 52.35738 | 0.50534 | 40 ft | 0 kts | 147° |
| 2026-05-03 21:28 | 52.35739 | 0.50533 | 40 ft | 1 kts | 148° |
| 2026-05-03 21:28 | 52.35715 | 0.50535 | 38 ft | 6 kts | 211° |
| 2026-05-03 21:28 | 52.35700 | 0.50463 | 41 ft | 8 kts | 263° |
| 2026-05-03 21:28 | 52.35697 | 0.50352 | 40 ft | 11 kts | 278° |
| 2026-05-03 21:29 | 52.35713 | 0.50210 | 40 ft | 14 kts | 283° |
| 2026-05-03 21:29 | 52.35741 | 0.50046 | 38 ft | 16 kts | 285° |
| 2026-05-03 21:29 | 52.35772 | 0.49852 | 38 ft | 19 kts | 284° |
| 2026-05-03 21:29 | 52.35805 | 0.49634 | 36 ft | 21 kts | 283° |
| 2026-05-03 21:30 | 52.35834 | 0.49421 | 37 ft | 15 kts | 274° |
| 2026-05-03 21:30 | 52.35828 | 0.49241 | 35 ft | 17 kts | 255° |
| 2026-05-03 21:30 | 52.35795 | 0.49041 | 36 ft | 19 kts | 254° |
| 2026-05-03 21:30 | 52.35763 | 0.48852 | 35 ft | 15 kts | 254° |
| 2026-05-03 21:31 | 52.35735 | 0.48684 | 35 ft | 15 kts | 254° |
| 2026-05-03 21:31 | 52.35709 | 0.48536 | 35 ft | 14 kts | 254° |
| 2026-05-03 21:31 | 52.35681 | 0.48369 | 34 ft | 17 kts | 254° |
| 2026-05-03 21:31 | 52.35652 | 0.48195 | 34 ft | 15 kts | 254° |
| 2026-05-03 21:32 | 52.35645 | 0.48024 | 38 ft | 15 kts | 271° |
| 2026-05-03 21:32 | 52.35647 | 0.47839 | 34 ft | 17 kts | 270° |
| 2026-05-03 21:32 | 52.35658 | 0.47654 | 31 ft | 17 kts | 281° |
| 2026-05-03 21:32 | 52.35682 | 0.47457 | 36 ft | 19 kts | 281° |
| 2026-05-03 21:33 | 52.35709 | 0.47234 | 35 ft | 21 kts | 281° |
| 2026-05-03 21:33 | 52.35728 | 0.47071 | 35 ft | 22 kts | 281° |
| 2026-05-03 21:33 | 52.35756 | 0.46869 | 34 ft | 14 kts | 294° |
| 2026-05-03 21:33 | 52.35788 | 0.46776 | 34 ft | 0 kts | 300° |
| 2026-05-03 21:34 | 52.35787 | 0.46776 | 34 ft | 0 kts | 300° |
| 2026-05-03 21:34 | 52.35795 | 0.46756 | 33 ft | 4 kts | 300° |
| 2026-05-03 21:34 | 52.35815 | 0.46697 | 33 ft | 7 kts | 299° |
| 2026-05-03 21:34 | 52.35844 | 0.46611 | 33 ft | 10 kts | 299° |
| 2026-05-03 21:35 | 52.35897 | 0.46536 | 33 ft | 11 kts | 343° |
| 2026-05-03 21:35 | 52.35972 | 0.46538 | 32 ft | 9 kts | 333° |
| 2026-05-03 21:35 | 52.36020 | 0.46493 | 32 ft | 7 kts | 338° |
| 2026-05-03 21:35 | 52.36056 | 0.46490 | 32 ft | 5 kts | 22° |
| 2026-05-03 21:36 | 52.36071 | 0.46507 | 32 ft | 0 kts | 58° |